sensor_id;sensor_type;location;lat;lon;timestamp;pressure;altitude;pressure_sealevel;temperature;humidity
56420;BME280;42323;52.170;7.538;2022-12-18T00:02:23;102550.44;;;-8.90;90.61
56420;BME280;42323;52.170;7.538;2022-12-18T00:04:50;102565.69;;;-8.88;91.09
56420;BME280;42323;52.170;7.538;2022-12-18T00:07:16;102560.59;;;-8.94;91.17
56420;BME280;42323;52.170;7.538;2022-12-18T00:09:43;102571.63;;;-8.89;90.83
56420;BME280;42323;52.170;7.538;2022-12-18T00:12:10;102558.91;;;-8.95;90.47
56420;BME280;42323;52.170;7.538;2022-12-18T00:14:43;102571.59;;;-8.86;91.01
56420;BME280;42323;52.170;7.538;2022-12-18T00:17:10;102569.06;;;-8.91;90.38
56420;BME280;42323;52.170;7.538;2022-12-18T00:19:37;102573.28;;;-8.94;90.51
56420;BME280;42323;52.170;7.538;2022-12-18T00:22:04;102567.41;;;-9.04;90.75
56420;BME280;42323;52.170;7.538;2022-12-18T00:24:31;102574.19;;;-9.06;90.30
56420;BME280;42323;52.170;7.538;2022-12-18T00:26:58;102575.84;;;-9.11;91.27
56420;BME280;42323;52.170;7.538;2022-12-18T00:29:24;102564.03;;;-9.14;90.52
56420;BME280;42323;52.170;7.538;2022-12-18T00:31:51;102570.78;;;-9.16;91.31
56420;BME280;42323;52.170;7.538;2022-12-18T00:34:18;102536.13;;;-9.33;91.45
56420;BME280;42323;52.170;7.538;2022-12-18T00:36:47;102575.00;;;-9.12;91.52
56420;BME280;42323;52.170;7.538;2022-12-18T00:39:14;102560.66;;;-9.26;90.49
56420;BME280;42323;52.170;7.538;2022-12-18T00:41:40;102568.28;;;-9.23;91.13
56420;BME280;42323;52.170;7.538;2022-12-18T01:03:19;102528.56;;;-9.70;90.91
56420;BME280;42323;52.170;7.538;2022-12-18T01:05:46;102543.75;;;-9.55;90.74
56420;BME280;42323;52.170;7.538;2022-12-18T01:08:13;102525.16;;;-9.68;90.09
56420;BME280;42323;52.170;7.538;2022-12-18T01:10:40;102568.28;;;-9.46;90.95
56420;BME280;42323;52.170;7.538;2022-12-18T01:13:08;102575.06;;;-9.48;90.93
56420;BME280;42323;52.170;7.538;2022-12-18T01:15:36;102526.03;;;-9.75;91.11
56420;BME280;42323;52.170;7.538;2022-12-18T01:18:03;102564.91;;;-9.56;91.23
56420;BME280;42323;52.170;7.538;2022-12-18T01:20:31;102553.06;;;-9.62;91.07
56420;BME280;42323;52.170;7.538;2022-12-18T01:44:56;102574.19;;;-9.73;91.29
56420;BME280;42323;52.170;7.538;2022-12-18T01:47:34;102579.25;;;-9.76;91.28
56420;BME280;42323;52.170;7.538;2022-12-18T01:50:15;102541.19;;;-9.93;90.24
56420;BME280;42323;52.170;7.538;2022-12-18T01:52:45;102580.09;;;-9.73;90.26
56420;BME280;42323;52.170;7.538;2022-12-18T01:55:15;102586.03;;;-9.74;90.58
56420;BME280;42323;52.170;7.538;2022-12-18T01:57:43;102586.88;;;-9.78;90.31
56420;BME280;42323;52.170;7.538;2022-12-18T02:00:16;102589.41;;;-9.75;90.40
56420;BME280;42323;52.170;7.538;2022-12-18T02:02:44;102580.94;;;-9.78;89.92
56420;BME280;42323;52.170;7.538;2022-12-18T02:05:15;102583.50;;;-9.74;90.95
56420;BME280;42323;52.170;7.538;2022-12-18T02:10:44;102570.81;;;-9.88;91.07
56420;BME280;42323;52.170;7.538;2022-12-18T02:13:20;102575.84;;;-9.85;90.24
56420;BME280;42323;52.170;7.538;2022-12-18T02:18:36;102563.19;;;-9.95;90.80
56420;BME280;42323;52.170;7.538;2022-12-18T02:21:08;102576.72;;;-9.92;91.45
56420;BME280;42323;52.170;7.538;2022-12-18T02:42:32;102559.78;;;-10.03;89.90
56420;BME280;42323;52.170;7.538;2022-12-18T02:44:59;102547.94;;;-10.11;90.61
56420;BME280;42323;52.170;7.538;2022-12-18T02:47:32;102544.53;;;-10.22;90.69
56420;BME280;42323;52.170;7.538;2022-12-18T02:53:04;102562.31;;;-10.09;90.76
56420;BME280;42323;52.170;7.538;2022-12-18T03:01:34;102562.28;;;-10.13;89.83
56420;BME280;42323;52.170;7.538;2022-12-18T03:23:04;102558.03;;;-10.20;90.68
56420;BME280;42323;52.170;7.538;2022-12-18T03:25:34;102543.69;;;-10.33;90.82
56420;BME280;42323;52.170;7.538;2022-12-18T03:28:05;102554.66;;;-10.34;90.34
56420;BME280;42323;52.170;7.538;2022-12-18T03:30:37;102564.00;;;-10.27;91.08
56420;BME280;42323;52.170;7.538;2022-12-18T03:33:13;102566.47;;;-10.24;89.66
56420;BME280;42323;52.170;7.538;2022-12-18T03:35:44;102556.38;;;-10.36;90.37
56420;BME280;42323;52.170;7.538;2022-12-18T03:38:11;102568.19;;;-10.30;90.46
56420;BME280;42323;52.170;7.538;2022-12-18T04:02:26;102495.44;;;-10.71;90.16
56420;BME280;42323;52.170;7.538;2022-12-18T04:04:58;102527.59;;;-10.46;89.93
56420;BME280;42323;52.170;7.538;2022-12-18T04:07:27;102527.63;;;-10.41;90.95
56420;BME280;42323;52.170;7.538;2022-12-18T04:09:56;102520.84;;;-10.51;90.53
56420;BME280;42323;52.170;7.538;2022-12-18T04:12:29;102541.97;;;-10.45;91.00
56420;BME280;42323;52.170;7.538;2022-12-18T04:14:56;102514.91;;;-10.59;90.18
56420;BME280;42323;52.170;7.538;2022-12-18T04:17:23;102542.81;;;-10.47;90.76
56420;BME280;42323;52.170;7.538;2022-12-18T04:19:50;102548.72;;;-10.42;90.53
56420;BME280;42323;52.170;7.538;2022-12-18T04:22:17;102522.50;;;-10.61;90.90
56420;BME280;42323;52.170;7.538;2022-12-18T05:02:32;102541.13;;;-10.42;90.16
56420;BME280;42323;52.170;7.538;2022-12-18T05:04:58;102531.81;;;-10.49;90.00
56420;BME280;42323;52.170;7.538;2022-12-18T05:07:25;102547.88;;;-10.47;89.86
56420;BME280;42323;52.170;7.538;2022-12-18T05:09:52;102526.72;;;-10.54;90.08
56420;BME280;42323;52.170;7.538;2022-12-18T05:12:18;102523.38;;;-10.53;90.05
56420;BME280;42323;52.170;7.538;2022-12-18T05:14:45;102526.78;;;-10.45;90.80
56420;BME280;42323;52.170;7.538;2022-12-18T05:17:12;102525.09;;;-10.41;90.84
56420;BME280;42323;52.170;7.538;2022-12-18T05:19:39;102515.78;;;-10.45;89.87
56420;BME280;42323;52.170;7.538;2022-12-18T05:22:07;102502.28;;;-10.41;90.00
56420;BME280;42323;52.170;7.538;2022-12-18T05:24:34;102500.63;;;-10.39;89.77
56420;BME280;42323;52.170;7.538;2022-12-18T05:27:01;102504.00;;;-10.37;90.16
56420;BME280;42323;52.170;7.538;2022-12-18T05:29:27;102509.91;;;-10.32;89.73
56420;BME280;42323;52.170;7.538;2022-12-18T05:31:54;102501.47;;;-10.37;90.55
56420;BME280;42323;52.170;7.538;2022-12-18T05:34:21;102509.91;;;-10.37;90.40
56420;BME280;42323;52.170;7.538;2022-12-18T05:36:48;102512.47;;;-10.23;90.32
56420;BME280;42323;52.170;7.538;2022-12-18T05:39:15;102519.22;;;-10.25;89.93
56420;BME280;42323;52.170;7.538;2022-12-18T05:41:41;102523.41;;;-10.19;90.27
56420;BME280;42323;52.170;7.538;2022-12-18T05:44:08;102515.00;;;-10.24;90.10
56420;BME280;42323;52.170;7.538;2022-12-18T05:46:35;102524.25;;;-10.20;89.98
56420;BME280;42323;52.170;7.538;2022-12-18T05:49:02;102525.13;;;-10.17;90.47
56420;BME280;42323;52.170;7.538;2022-12-18T05:51:29;102524.25;;;-10.23;90.03
56420;BME280;42323;52.170;7.538;2022-12-18T05:53:56;102528.50;;;-10.18;90.61
56420;BME280;42323;52.170;7.538;2022-12-18T05:56:23;102542.03;;;-10.14;89.99
56420;BME280;42323;52.170;7.538;2022-12-18T05:58:53;102547.09;;;-10.09;90.34
56420;BME280;42323;52.170;7.538;2022-12-18T06:01:23;102546.25;;;-10.13;90.59
56420;BME280;42323;52.170;7.538;2022-12-18T06:03:50;102542.03;;;-10.19;90.76
56420;BME280;42323;52.170;7.538;2022-12-18T06:08:44;102545.38;;;-10.11;90.30
56420;BME280;42323;52.170;7.538;2022-12-18T06:11:12;102531.88;;;-10.19;91.07
56420;BME280;42323;52.170;7.538;2022-12-18T06:13:39;102551.28;;;-10.15;89.92
56420;BME280;42323;52.170;7.538;2022-12-18T06:16:07;102532.75;;;-10.27;90.83
56420;BME280;42323;52.170;7.538;2022-12-18T06:18:34;102545.41;;;-10.24;90.88
56420;BME280;42323;52.170;7.538;2022-12-18T06:21:01;102557.22;;;-10.25;90.58
56420;BME280;42323;52.170;7.538;2022-12-18T06:23:28;102531.03;;;-10.34;91.38
56420;BME280;42323;52.170;7.538;2022-12-18T06:25:55;102558.91;;;-10.21;90.26
56420;BME280;42323;52.170;7.538;2022-12-18T06:28:22;102548.78;;;-10.27;90.03
56420;BME280;42323;52.170;7.538;2022-12-18T06:30:50;102554.69;;;-10.31;90.18
56420;BME280;42323;52.170;7.538;2022-12-18T06:33:17;102553.84;;;-10.36;91.13
56420;BME280;42323;52.170;7.538;2022-12-18T06:35:44;102571.53;;;-10.24;90.80
56420;BME280;42323;52.170;7.538;2022-12-18T06:38:11;102556.34;;;-10.33;90.87
56420;BME280;42323;52.170;7.538;2022-12-18T06:40:38;102579.19;;;-10.25;90.78
56420;BME280;42323;52.170;7.538;2022-12-18T07:04:41;102580.84;;;-10.35;91.05
56420;BME280;42323;52.170;7.538;2022-12-18T07:07:08;102589.28;;;-10.28;90.68
56420;BME280;42323;52.170;7.538;2022-12-18T07:09:35;102563.94;;;-10.38;90.98
56420;BME280;42323;52.170;7.538;2022-12-18T07:12:02;102564.81;;;-10.31;90.38
56420;BME280;42323;52.170;7.538;2022-12-18T07:14:28;102542.84;;;-10.38;90.70
56420;BME280;42323;52.170;7.538;2022-12-18T07:16:55;102543.69;;;-10.34;91.36
56420;BME280;42323;52.170;7.538;2022-12-18T07:19:22;102551.31;;;-10.25;90.57
56420;BME280;42323;52.170;7.538;2022-12-18T07:21:50;102546.22;;;-10.21;91.18
56420;BME280;42323;52.170;7.538;2022-12-18T07:43:03;102526.88;;;-9.74;91.16
56420;BME280;42323;52.170;7.538;2022-12-18T07:45:30;102521.81;;;-9.67;91.48
56420;BME280;42323;52.170;7.538;2022-12-18T07:47:57;102526.00;;;-9.55;91.25
56420;BME280;42323;52.170;7.538;2022-12-18T07:50:23;102521.78;;;-9.44;90.99
56420;BME280;42323;52.170;7.538;2022-12-18T07:52:50;102526.81;;;-9.33;90.90
56420;BME280;42323;52.170;7.538;2022-12-18T07:55:17;102501.44;;;-9.28;91.42
56420;BME280;42323;52.170;7.538;2022-12-18T07:57:44;102492.97;;;-9.24;91.88
56420;BME280;42323;52.170;7.538;2022-12-18T08:00:24;102509.00;;;-9.07;91.29
56420;BME280;42323;52.170;7.538;2022-12-18T08:02:51;102521.69;;;-8.93;91.33
56420;BME280;42323;52.170;7.538;2022-12-18T08:24:05;102532.53;;;-8.50;91.05
56420;BME280;42323;52.170;7.538;2022-12-18T08:26:32;102528.25;;;-8.45;91.62
56420;BME280;42323;52.170;7.538;2022-12-18T08:28:59;102521.47;;;-8.44;90.61
56420;BME280;42323;52.170;7.538;2022-12-18T08:31:28;102533.19;;;-8.23;90.65
56420;BME280;42323;52.170;7.538;2022-12-18T08:33:55;102528.06;;;-8.11;91.70
56420;BME280;42323;52.170;7.538;2022-12-18T08:36:23;102518.66;;;-8.01;91.41
56420;BME280;42323;52.170;7.538;2022-12-18T08:38:51;102500.03;;;-8.05;91.06
56420;BME280;42323;52.170;7.538;2022-12-18T08:41:18;102515.13;;;-7.84;91.21
56420;BME280;42323;52.170;7.538;2022-12-18T08:43:46;102519.31;;;-7.78;91.56
56420;BME280;42323;52.170;7.538;2022-12-18T08:46:40;102517.50;;;-7.62;90.93
56420;BME280;42323;52.170;7.538;2022-12-18T09:01:47;102497.50;;;-7.13;90.78
56420;BME280;42323;52.170;7.538;2022-12-18T09:06:44;102445.88;;;-7.25;90.47
56420;BME280;42323;52.170;7.538;2022-12-18T09:09:12;102487.03;;;-6.88;91.56
56420;BME280;42323;52.170;7.538;2022-12-18T09:19:37;102485.91;;;-6.64;91.46
56420;BME280;42323;52.170;7.538;2022-12-18T09:22:04;102466.44;;;-6.70;90.20
56420;BME280;42323;52.170;7.538;2022-12-18T09:24:30;102489.06;;;-6.45;91.37
56420;BME280;42323;52.170;7.538;2022-12-18T09:26:57;102502.38;;;-6.26;90.87
56420;BME280;42323;52.170;7.538;2022-12-18T09:33:17;102464.94;;;-6.21;90.38
56420;BME280;42323;52.170;7.538;2022-12-18T09:35:45;102516.16;;;-5.83;90.81
56420;BME280;42323;52.170;7.538;2022-12-18T09:38:18;102495.84;;;-5.89;90.50
56420;BME280;42323;52.170;7.538;2022-12-18T09:40:51;102515.94;;;-5.69;90.18
56420;BME280;42323;52.170;7.538;2022-12-18T10:05:10;102467.81;;;-3.17;86.83
56420;BME280;42323;52.170;7.538;2022-12-18T10:07:43;102460.00;;;-3.13;85.54
56420;BME280;42323;52.170;7.538;2022-12-18T10:12:53;102456.88;;;-3.55;87.38
56420;BME280;42323;52.170;7.538;2022-12-18T10:21:11;102434.06;;;-3.33;86.56
56420;BME280;42323;52.170;7.538;2022-12-18T10:24:30;102438.56;;;-3.41;87.08
56420;BME280;42323;52.170;7.538;2022-12-18T10:26:36;102450.63;;;-3.45;87.13
56420;BME280;42323;52.170;7.538;2022-12-18T10:29:21;102425.34;;;-3.57;87.68
56420;BME280;42323;52.170;7.538;2022-12-18T10:31:51;102441.31;;;-3.47;87.18
56420;BME280;42323;52.170;7.538;2022-12-18T10:34:18;102413.97;;;-3.47;87.14
56420;BME280;42323;52.170;7.538;2022-12-18T10:36:47;102417.09;;;-3.37;87.03
56420;BME280;42323;52.170;7.538;2022-12-18T10:39:40;102372.31;;;-3.54;86.99
56420;BME280;42323;52.170;7.538;2022-12-18T11:15:27;102372.75;;;-1.75;84.81
56420;BME280;42323;52.170;7.538;2022-12-18T11:17:56;102364.00;;;-1.70;85.19
56420;BME280;42323;52.170;7.538;2022-12-18T11:20:34;102356.94;;;-1.65;85.13
56420;BME280;42323;52.170;7.538;2022-12-18T11:23:03;102363.22;;;-1.72;85.20
56420;BME280;42323;52.170;7.538;2022-12-18T11:25:36;102345.75;;;-1.87;85.08
56420;BME280;42323;52.170;7.538;2022-12-18T11:28:27;102330.34;;;-1.87;85.26
56420;BME280;42323;52.170;7.538;2022-12-18T11:31:26;102332.91;;;-1.87;85.94
56420;BME280;42323;52.170;7.538;2022-12-18T11:34:09;102297.53;;;-2.04;85.14
56420;BME280;42323;52.170;7.538;2022-12-18T11:36:57;102312.03;;;-2.02;85.21
56420;BME280;42323;52.170;7.538;2022-12-18T11:43:12;102298.03;;;-2.18;85.45
56420;BME280;42323;52.170;7.538;2022-12-18T11:45:49;102316.47;;;-2.07;85.22
56420;BME280;42323;52.170;7.538;2022-12-18T11:48:37;102310.94;;;-2.19;85.47
56420;BME280;42323;52.170;7.538;2022-12-18T11:51:13;102308.78;;;-2.32;86.28
56420;BME280;42323;52.170;7.538;2022-12-18T11:53:41;102326.56;;;-2.27;86.04
56420;BME280;42323;52.170;7.538;2022-12-18T11:56:18;102298.16;;;-2.47;86.82
56420;BME280;42323;52.170;7.538;2022-12-18T12:01:53;102304.97;;;-2.46;86.33
56420;BME280;42323;52.170;7.538;2022-12-18T12:10:37;102280.09;;;-2.44;86.30
56420;BME280;42323;52.170;7.538;2022-12-18T12:13:35;102171.19;;;-3.11;86.69
56420;BME280;42323;52.170;7.538;2022-12-18T12:32:45;102280.47;;;-2.30;87.57
56420;BME280;42323;52.170;7.538;2022-12-18T12:40:37;102226.81;;;-2.36;87.88
56420;BME280;42323;52.170;7.538;2022-12-18T12:43:29;102233.44;;;-2.31;87.58
56420;BME280;42323;52.170;7.538;2022-12-18T12:46:03;102209.09;;;-2.44;87.19
56420;BME280;42323;52.170;7.538;2022-12-18T12:48:43;102239.41;;;-2.30;87.26
56420;BME280;42323;52.170;7.538;2022-12-18T12:51:24;102231.72;;;-2.30;87.68
56420;BME280;42323;52.170;7.538;2022-12-18T12:53:53;102225.75;;;-2.31;87.46
56420;BME280;42323;52.170;7.538;2022-12-18T12:56:21;102219.25;;;-2.41;87.34
56420;BME280;42323;52.170;7.538;2022-12-18T13:01:47;102209.16;;;-2.45;86.56
56420;BME280;42323;52.170;7.538;2022-12-18T13:07:04;102204.72;;;-2.42;87.85
56420;BME280;42323;52.170;7.538;2022-12-18T13:13:04;102200.91;;;-2.30;87.45
56420;BME280;42323;52.170;7.538;2022-12-18T13:16:03;102199.31;;;-2.33;87.35
56420;BME280;42323;52.170;7.538;2022-12-18T13:18:29;102182.53;;;-2.43;87.33
56420;BME280;42323;52.170;7.538;2022-12-18T13:23:32;102178.97;;;-2.39;87.09
56420;BME280;42323;52.170;7.538;2022-12-18T13:28:56;102156.31;;;-2.51;87.28
56420;BME280;42323;52.170;7.538;2022-12-18T13:34:21;102180.53;;;-2.35;86.92
56420;BME280;42323;52.170;7.538;2022-12-18T13:36:55;102162.00;;;-2.43;86.79
56420;BME280;42323;52.170;7.538;2022-12-18T13:39:31;102151.72;;;-2.41;86.14
56420;BME280;42323;52.170;7.538;2022-12-18T13:44:40;102137.34;;;-2.47;85.66
56420;BME280;42323;52.170;7.538;2022-12-18T13:47:32;102160.66;;;-2.28;85.51
56420;BME280;42323;52.170;7.538;2022-12-18T13:50:01;102139.75;;;-2.42;85.29
56420;BME280;42323;52.170;7.538;2022-12-18T13:52:37;102157.28;;;-2.30;85.24
56420;BME280;42323;52.170;7.538;2022-12-18T13:55:14;102135.34;;;-2.39;85.19
56420;BME280;42323;52.170;7.538;2022-12-18T13:57:42;102110.25;;;-2.54;84.85
56420;BME280;42323;52.170;7.538;2022-12-18T14:02:49;102147.09;;;-2.32;84.24
56420;BME280;42323;52.170;7.538;2022-12-18T14:07:53;102141.94;;;-2.32;83.64
56420;BME280;42323;52.170;7.538;2022-12-18T14:10:22;102109.28;;;-2.52;84.06
56420;BME280;42323;52.170;7.538;2022-12-18T14:13:10;102133.41;;;-2.32;83.71
56420;BME280;42323;52.170;7.538;2022-12-18T14:15:44;102118.88;;;-2.33;83.61
56420;BME280;42323;52.170;7.538;2022-12-18T14:21:03;102100.50;;;-2.44;83.10
56420;BME280;42323;52.170;7.538;2022-12-18T14:23:35;102118.78;;;-2.30;83.06
56420;BME280;42323;52.170;7.538;2022-12-18T14:26:28;102093.63;;;-2.44;83.52
56420;BME280;42323;52.170;7.538;2022-12-18T14:28:58;102106.06;;;-2.33;82.94
56420;BME280;42323;52.170;7.538;2022-12-18T14:31:29;102093.19;;;-2.32;82.83
56420;BME280;42323;52.170;7.538;2022-12-18T14:33:56;102101.97;;;-2.37;82.54
56420;BME280;42323;52.170;7.538;2022-12-18T14:36:26;102085.75;;;-2.39;82.54
56420;BME280;42323;52.170;7.538;2022-12-18T14:38:57;102070.47;;;-2.42;82.20
56420;BME280;42323;52.170;7.538;2022-12-18T14:41:25;102076.22;;;-2.36;81.71
56420;BME280;42323;52.170;7.538;2022-12-18T14:43:54;102072.03;;;-2.38;81.51
56420;BME280;42323;52.170;7.538;2022-12-18T14:49:24;102076.78;;;-2.28;81.49
56420;BME280;42323;52.170;7.538;2022-12-18T14:51:54;102077.63;;;-2.27;80.86
56420;BME280;42323;52.170;7.538;2022-12-18T14:54:24;102072.75;;;-2.35;80.58
56420;BME280;42323;52.170;7.538;2022-12-18T14:57:00;102080.28;;;-2.30;81.14
56420;BME280;42323;52.170;7.538;2022-12-18T14:59:29;102070.38;;;-2.39;81.08
56420;BME280;42323;52.170;7.538;2022-12-18T15:04:41;102070.03;;;-2.30;80.94
56420;BME280;42323;52.170;7.538;2022-12-18T15:07:16;101991.31;;;-2.75;80.61
56420;BME280;42323;52.170;7.538;2022-12-18T15:10:17;102023.59;;;-2.46;79.92
56420;BME280;42323;52.170;7.538;2022-12-18T15:15:49;102025.00;;;-2.39;79.71
56420;BME280;42323;52.170;7.538;2022-12-18T15:18:38;101905.28;;;-3.06;79.11
56420;BME280;42323;52.170;7.538;2022-12-18T15:21:17;102017.84;;;-2.31;78.89
56420;BME280;42323;52.170;7.538;2022-12-18T15:23:49;102031.00;;;-2.16;78.64
56420;BME280;42323;52.170;7.538;2022-12-18T15:26:23;101938.13;;;-2.70;78.14
56420;BME280;42323;52.170;7.538;2022-12-18T15:37:20;101990.53;;;-2.32;77.26
56420;BME280;42323;52.170;7.538;2022-12-18T15:43:58;101954.91;;;-2.39;75.95
56420;BME280;42323;52.170;7.538;2022-12-18T15:46:52;101964.97;;;-2.35;76.55
56420;BME280;42323;52.170;7.538;2022-12-18T15:49:55;101953.16;;;-2.39;76.10
56420;BME280;42323;52.170;7.538;2022-12-18T15:53:08;101886.91;;;-2.71;76.03
56420;BME280;42323;52.170;7.538;2022-12-18T15:55:48;101923.47;;;-2.44;75.92
56420;BME280;42323;52.170;7.538;2022-12-18T15:58:47;101956.03;;;-2.24;75.74
56420;BME280;42323;52.170;7.538;2022-12-18T16:04:53;101995.22;;;-1.99;75.53
56420;BME280;42323;52.170;7.538;2022-12-18T16:07:20;101984.44;;;-2.07;75.46
56420;BME280;42323;52.170;7.538;2022-12-18T16:09:50;101984.06;;;-1.98;74.88
56420;BME280;42323;52.170;7.538;2022-12-18T16:12:22;101998.13;;;-1.86;74.88
56420;BME280;42323;52.170;7.538;2022-12-18T16:14:50;101962.75;;;-2.00;74.93
56420;BME280;42323;52.170;7.538;2022-12-18T16:17:17;101970.25;;;-1.95;74.69
56420;BME280;42323;52.170;7.538;2022-12-18T16:19:43;101974.34;;;-1.90;75.07
56420;BME280;42323;52.170;7.538;2022-12-18T16:24:48;101968.94;;;-1.84;74.55
56420;BME280;42323;52.170;7.538;2022-12-18T16:27:15;101946.19;;;-1.93;74.17
56420;BME280;42323;52.170;7.538;2022-12-18T16:29:43;101950.69;;;-1.78;74.16
56420;BME280;42323;52.170;7.538;2022-12-18T16:32:17;101926.69;;;-1.97;73.76
56420;BME280;42323;52.170;7.538;2022-12-18T16:34:45;101956.72;;;-1.79;74.18
56420;BME280;42323;52.170;7.538;2022-12-18T16:37:14;101953.59;;;-1.85;74.06
56420;BME280;42323;52.170;7.538;2022-12-18T16:39:42;101954.25;;;-1.80;74.26
56420;BME280;42323;52.170;7.538;2022-12-18T16:42:15;101950.06;;;-1.83;73.83
56420;BME280;42323;52.170;7.538;2022-12-18T16:47:24;101885.66;;;-2.19;73.44
56420;BME280;42323;52.170;7.538;2022-12-18T16:57:50;101945.31;;;-1.71;73.12
56420;BME280;42323;52.170;7.538;2022-12-18T17:02:50;101897.59;;;-1.97;73.14
56420;BME280;42323;52.170;7.538;2022-12-18T17:05:17;101818.06;;;-2.40;72.57
56420;BME280;42323;52.170;7.538;2022-12-18T17:07:44;101929.47;;;-1.81;72.94
56420;BME280;42323;52.170;7.538;2022-12-18T17:10:11;101908.97;;;-1.83;72.67
56420;BME280;42323;52.170;7.538;2022-12-18T17:12:37;101915.63;;;-1.79;72.85
56420;BME280;42323;52.170;7.538;2022-12-18T17:15:04;101916.47;;;-1.78;72.83
56420;BME280;42323;52.170;7.538;2022-12-18T17:17:31;101934.91;;;-1.68;72.91
56420;BME280;42323;52.170;7.538;2022-12-18T17:19:58;101936.00;;;-1.74;72.90
56420;BME280;42323;52.170;7.538;2022-12-18T17:22:25;101903.91;;;-1.84;72.87
56420;BME280;42323;52.170;7.538;2022-12-18T17:24:52;101915.72;;;-1.80;73.19
56420;BME280;42323;52.170;7.538;2022-12-18T17:27:19;101893.94;;;-1.92;72.79
56420;BME280;42323;52.170;7.538;2022-12-18T17:29:46;101903.09;;;-1.86;73.30
56420;BME280;42323;52.170;7.538;2022-12-18T17:32:15;101907.22;;;-1.82;73.12
56420;BME280;42323;52.170;7.538;2022-12-18T17:34:42;101924.75;;;-1.71;73.36
56420;BME280;42323;52.170;7.538;2022-12-18T17:37:09;101897.41;;;-1.93;73.25
56420;BME280;42323;52.170;7.538;2022-12-18T17:39:36;101804.66;;;-2.46;72.67
56420;BME280;42323;52.170;7.538;2022-12-18T17:42:11;101828.34;;;-2.40;73.33
56420;BME280;42323;52.170;7.538;2022-12-18T18:00:54;101792.84;;;-2.50;73.48
56420;BME280;42323;52.170;7.538;2022-12-18T18:03:21;101814.38;;;-2.33;73.16
56420;BME280;42323;52.170;7.538;2022-12-18T18:08:24;101776.56;;;-2.49;72.69
56420;BME280;42323;52.170;7.538;2022-12-18T18:10:51;101855.88;;;-2.03;73.20
56420;BME280;42323;52.170;7.538;2022-12-18T18:13:27;101828.16;;;-2.15;72.50
56420;BME280;42323;52.170;7.538;2022-12-18T18:16:12;101892.00;;;-1.87;72.96
56420;BME280;42323;52.170;7.538;2022-12-18T18:18:39;101904.00;;;-1.67;73.15
56420;BME280;42323;52.170;7.538;2022-12-18T18:21:07;101899.06;;;-1.71;72.06
56420;BME280;42323;52.170;7.538;2022-12-18T18:23:35;101819.03;;;-2.22;72.57
56420;BME280;42323;52.170;7.538;2022-12-18T18:39:27;101860.75;;;-1.96;72.51
56420;BME280;42323;52.170;7.538;2022-12-18T18:41:54;101858.31;;;-1.99;72.67
56420;BME280;42323;52.170;7.538;2022-12-18T18:44:21;101844.06;;;-2.07;73.01
56420;BME280;42323;52.170;7.538;2022-12-18T18:46:55;101907.63;;;-1.71;72.71
56420;BME280;42323;52.170;7.538;2022-12-18T18:49:24;101898.50;;;-1.78;72.40
56420;BME280;42323;52.170;7.538;2022-12-18T18:51:54;101810.78;;;-2.29;72.51
56420;BME280;42323;52.170;7.538;2022-12-18T18:54:21;101803.44;;;-2.38;73.39
56420;BME280;42323;52.170;7.538;2022-12-18T19:02:06;101866.19;;;-2.04;73.20
56420;BME280;42323;52.170;7.538;2022-12-18T19:04:34;101899.97;;;-1.93;73.83
56420;BME280;42323;52.170;7.538;2022-12-18T19:07:11;101924.56;;;-1.87;73.79
56420;BME280;42323;52.170;7.538;2022-12-18T19:09:40;101908.41;;;-1.89;73.78
56420;BME280;42323;52.170;7.538;2022-12-18T19:12:08;101892.31;;;-1.94;73.52
56420;BME280;42323;52.170;7.538;2022-12-18T19:15:05;101901.53;;;-1.89;73.45
56420;BME280;42323;52.170;7.538;2022-12-18T19:17:31;101916.34;;;-1.75;73.72
56420;BME280;42323;52.170;7.538;2022-12-18T19:20:00;101912.31;;;-1.81;73.68
56420;BME280;42323;52.170;7.538;2022-12-18T19:22:30;101906.47;;;-1.84;73.74
56420;BME280;42323;52.170;7.538;2022-12-18T19:24:57;101899.78;;;-1.88;73.73
56420;BME280;42323;52.170;7.538;2022-12-18T19:27:24;101919.19;;;-1.81;73.84
56420;BME280;42323;52.170;7.538;2022-12-18T19:29:51;101909.06;;;-1.86;74.17
56420;BME280;42323;52.170;7.538;2022-12-18T19:32:17;101913.34;;;-1.85;74.25
56420;BME280;42323;52.170;7.538;2022-12-18T19:34:44;101903.44;;;-1.94;74.36
56420;BME280;42323;52.170;7.538;2022-12-18T19:37:13;101922.50;;;-1.79;74.53
56420;BME280;42323;52.170;7.538;2022-12-18T19:39:40;101899.00;;;-1.90;74.64
56420;BME280;42323;52.170;7.538;2022-12-18T19:42:06;101884.50;;;-1.91;74.90
56420;BME280;42323;52.170;7.538;2022-12-18T19:47:11;101835.22;;;-2.20;74.08
56420;BME280;42323;52.170;7.538;2022-12-18T19:49:40;101873.66;;;-1.98;74.15
56420;BME280;42323;52.170;7.538;2022-12-18T19:52:08;101839.38;;;-2.17;74.50
56420;BME280;42323;52.170;7.538;2022-12-18T19:58:15;101836.25;;;-2.24;74.90
56420;BME280;42323;52.170;7.538;2022-12-18T20:00:42;101930.59;;;-1.68;74.96
56420;BME280;42323;52.170;7.538;2022-12-18T20:03:09;101889.44;;;-1.87;75.18
56420;BME280;42323;52.170;7.538;2022-12-18T20:05:54;101830.84;;;-2.18;74.87
56420;BME280;42323;52.170;7.538;2022-12-18T20:08:21;101870.75;;;-1.90;75.06
56420;BME280;42323;52.170;7.538;2022-12-18T20:10:48;101853.25;;;-2.01;74.93
56420;BME280;42323;52.170;7.538;2022-12-18T20:13:20;101799.81;;;-2.32;74.34
56420;BME280;42323;52.170;7.538;2022-12-18T20:15:47;101901.53;;;-1.68;74.56
56420;BME280;42323;52.170;7.538;2022-12-18T20:18:14;101887.25;;;-1.75;74.52
56420;BME280;42323;52.170;7.538;2022-12-18T20:20:43;101826.22;;;-2.10;74.20
56420;BME280;42323;52.170;7.538;2022-12-18T20:23:11;101856.69;;;-1.82;74.39
56420;BME280;42323;52.170;7.538;2022-12-18T20:25:41;101788.31;;;-2.23;74.44
56420;BME280;42323;52.170;7.538;2022-12-18T20:28:09;101862.47;;;-1.77;74.22
56420;BME280;42323;52.170;7.538;2022-12-18T20:30:36;101773.03;;;-2.27;74.50
56420;BME280;42323;52.170;7.538;2022-12-18T20:33:09;101856.47;;;-1.77;74.89
56420;BME280;42323;52.170;7.538;2022-12-18T20:35:36;101808.88;;;-2.05;74.92
56420;BME280;42323;52.170;7.538;2022-12-18T20:38:03;101759.56;;;-2.32;75.18
56420;BME280;42323;52.170;7.538;2022-12-18T20:40:32;101793.06;;;-2.14;75.34